Time;durP1;ratioP1;P1;durP2;ratioP2;P2;SDS_P1;SDS_P2;PMS_P1;PMS_P2;Temp;Humidity;BMP_temperature;BMP_pressure;BME280_temperature;BME280_humidity;BME280_pressure;Samples;Min_cycle;Max_cycle;Signal;HPM_P1;HPM_P2
2023/11/29 00:00:03;;;;;;;51.87;32.77;;;3.80;96.40;;;;;;5064036;28;20205;-62
2023/11/29 00:02:38;;;;;;;44.20;28.30;;;3.80;96.40;;;;;;5069781;28;20581;-62
2023/11/29 00:05:10;;;;;;;43.30;27.27;;;3.80;96.40;;;;;;5065156;28;20263;-62
2023/11/29 00:07:40;;;;;;;39.33;27.53;;;3.70;96.40;;;;;;5065835;28;20283;-62
2023/11/29 00:10:10;;;;;;;39.90;29.80;;;3.70;96.30;;;;;;5067716;28;20221;-62
2023/11/29 00:12:37;;;;;;;44.90;30.63;;;3.70;96.30;;;;;;5066069;28;20198;-63
2023/11/29 00:15:05;;;;;;;50.40;33.13;;;3.60;96.30;;;;;;5067095;28;20263;-62
2023/11/29 00:17:32;;;;;;;46.90;31.53;;;3.60;96.30;;;;;;5059370;28;20206;-62
2023/11/29 00:20:00;;;;;;;45.63;32.87;;;3.50;96.30;;;;;;5045319;28;20689;-62
2023/11/29 00:22:27;;;;;;;46.50;29.93;;;3.50;96.20;;;;;;5052402;28;20591;-61
2023/11/29 00:24:54;;;;;;;45.43;29.37;;;3.50;96.20;;;;;;5063222;28;20732;-63
2023/11/29 00:27:21;;;;;;;50.77;30.77;;;3.50;96.20;;;;;;5064434;28;20271;-62
2023/11/29 00:29:48;;;;;;;47.57;29.73;;;3.40;96.20;;;;;;5063173;28;20205;-62
2023/11/29 00:32:16;;;;;;;47.57;31.77;;;3.40;96.20;;;;;;5065396;28;20652;-63
2023/11/29 00:34:43;;;;;;;46.00;31.53;;;3.40;96.30;;;;;;5066622;28;20208;-63
2023/11/29 00:37:09;;;;;;;49.27;30.37;;;3.40;96.30;;;;;;5063690;28;20235;-63
2023/11/29 00:39:36;;;;;;;51.40;31.67;;;3.40;96.40;;;;;;5063024;28;20667;-62
2023/11/29 00:42:04;;;;;;;40.00;29.47;;;3.40;96.40;;;;;;5064996;28;20630;-62
2023/11/29 00:44:31;;;;;;;45.60;30.17;;;3.40;96.50;;;;;;5057134;28;20651;-62
2023/11/29 00:46:58;;;;;;;50.83;30.73;;;3.40;96.50;;;;;;5041465;28;20209;-62
2023/11/29 00:49:25;;;;;;;50.33;30.23;;;3.40;96.50;;;;;;5067188;28;20250;-63
2023/11/29 00:51:52;;;;;;;46.00;30.07;;;3.40;96.50;;;;;;5064217;28;20212;-63
2023/11/29 00:54:19;;;;;;;50.17;31.67;;;3.30;96.50;;;;;;5049602;28;20616;-62
2023/11/29 00:56:46;;;;;;;49.77;30.40;;;3.30;96.50;;;;;;5066050;28;20210;-63
2023/11/29 00:59:13;;;;;;;49.80;31.57;;;3.30;96.50;;;;;;5065474;28;20206;-63
2023/11/29 01:01:40;;;;;;;48.77;30.13;;;3.30;96.40;;;;;;5063661;28;20203;-62
2023/11/29 01:04:07;;;;;;;45.03;30.03;;;3.20;96.40;;;;;;5066948;28;20713;-62
2023/11/29 01:06:34;;;;;;;46.83;28.87;;;3.20;96.50;;;;;;5067027;28;20202;-62
2023/11/29 01:09:03;;;;;;;45.50;28.83;;;3.20;96.60;;;;;;5067737;28;20689;-62
2023/11/29 01:11:30;;;;;;;41.93;27.50;;;3.20;96.80;;;;;;5049691;28;20196;-62
2023/11/29 01:13:57;;;;;;;41.20;28.80;;;3.20;96.90;;;;;;5055837;28;20301;-62
2023/11/29 01:16:24;;;;;;;41.80;27.90;;;3.30;96.90;;;;;;5052285;28;20706;-63
2023/11/29 01:18:51;;;;;;;44.37;29.27;;;3.20;96.80;;;;;;5054274;28;20259;-62
2023/11/29 01:21:19;;;;;;;41.70;27.73;;;3.20;96.60;;;;;;5064204;28;20214;-62
2023/11/29 01:23:57;;;;;;;39.83;26.40;;;3.20;96.50;;;;;;5045348;28;20276;-62
2023/11/29 01:26:24;;;;;;;44.93;27.57;;;3.20;96.50;;;;;;5046722;28;20293;-62
2023/11/29 01:28:51;;;;;;;46.27;28.10;;;3.10;96.60;;;;;;5055488;28;20220;-62
2023/11/29 01:31:18;;;;;;;41.60;26.87;;;3.20;96.70;;;;;;5070302;28;20579;-63
2023/11/29 01:33:46;;;;;;;38.73;27.37;;;3.20;96.70;;;;;;5055050;28;20239;-63
2023/11/29 01:36:13;;;;;;;40.57;26.17;;;3.20;96.70;;;;;;5061169;28;20207;-62
2023/11/29 01:38:40;;;;;;;42.53;25.50;;;3.20;96.70;;;;;;5065889;28;20192;-62
2023/11/29 01:41:07;;;;;;;37.70;25.60;;;3.20;96.60;;;;;;5063157;28;20283;-62
2023/11/29 01:43:34;;;;;;;39.33;25.73;;;3.10;96.50;;;;;;5065659;28;20208;-62
2023/11/29 01:46:02;;;;;;;37.50;24.90;;;3.10;96.50;;;;;;5053814;28;20231;-62
2023/11/29 01:48:31;;;;;;;39.77;25.90;;;3.10;96.50;;;;;;5065066;28;20200;-63
2023/11/29 01:50:59;;;;;;;48.93;27.27;;;3.00;96.60;;;;;;5030812;28;20558;-62
2023/11/29 01:53:27;;;;;;;42.07;26.97;;;3.00;96.60;;;;;;5073762;28;20200;-62
2023/11/29 01:55:54;;;;;;;42.17;27.40;;;3.00;96.60;;;;;;5065143;28;20211;-62
2023/11/29 01:58:23;;;;;;;38.77;26.90;;;3.00;96.50;;;;;;5061698;28;20210;-63
2023/11/29 02:00:51;;;;;;;44.67;28.80;;;3.00;96.50;;;;;;5065363;28;20606;-63
2023/11/29 02:03:21;;;;;;;43.17;28.23;;;2.90;96.50;;;;;;5070011;28;20205;-62
2023/11/29 02:05:48;;;;;;;42.63;29.87;;;2.90;96.50;;;;;;5046739;28;20289;-62
2023/11/29 02:08:16;;;;;;;44.57;30.20;;;2.90;96.60;;;;;;5050810;28;20216;-62
2023/11/29 02:10:44;;;;;;;44.67;29.47;;;2.90;96.60;;;;;;5064471;28;20536;-62
2023/11/29 02:13:12;;;;;;;50.83;31.17;;;2.90;96.60;;;;;;5050868;28;20238;-62
2023/11/29 02:15:39;;;;;;;50.70;31.43;;;2.90;96.60;;;;;;5046389;28;20232;-62
2023/11/29 02:18:06;;;;;;;49.80;30.93;;;2.90;96.60;;;;;;5066034;28;20214;-62
2023/11/29 02:20:35;;;;;;;44.77;30.13;;;2.80;96.50;;;;;;5048761;28;20220;-62
2023/11/29 02:23:07;;;;;;;46.77;31.10;;;2.80;96.60;;;;;;5064549;28;20327;-62
2023/11/29 02:25:34;;;;;;;41.90;28.57;;;2.80;96.60;;;;;;5062393;28;20228;-62
2023/11/29 02:28:01;;;;;;;43.37;28.87;;;2.80;96.60;;;;;;5049228;28;20201;-62
2023/11/29 02:30:28;;;;;;;49.07;31.30;;;2.70;96.60;;;;;;5061935;28;20203;-62
2023/11/29 02:32:55;;;;;;;51.67;31.80;;;2.70;96.50;;;;;;5055105;28;20216;-62
2023/11/29 02:35:22;;;;;;;50.70;31.57;;;2.70;96.50;;;;;;5070645;28;20200;-62
2023/11/29 02:37:49;;;;;;;46.17;28.90;;;2.70;96.50;;;;;;5043600;28;20573;-62
2023/11/29 02:40:16;;;;;;;45.40;28.20;;;2.60;96.50;;;;;;5063900;28;20204;-62
2023/11/29 02:42:43;;;;;;;45.70;30.10;;;2.60;96.50;;;;;;5053454;28;20256;-62
2023/11/29 02:45:11;;;;;;;42.37;29.17;;;2.60;96.40;;;;;;5066363;28;20220;-62
2023/11/29 02:47:38;;;;;;;41.93;28.93;;;2.60;96.20;;;;;;5058117;28;20300;-62
2023/11/29 02:50:06;;;;;;;42.17;28.73;;;2.50;96.10;;;;;;5062195;28;20201;-62
2023/11/29 02:52:33;;;;;;;41.53;28.60;;;2.40;96.10;;;;;;5053548;28;20204;-62
2023/11/29 02:55:00;;;;;;;49.33;30.53;;;2.30;96.20;;;;;;5069012;28;20200;-62
2023/11/29 02:57:27;;;;;;;51.57;31.43;;;2.30;96.20;;;;;;5053898;28;20200;-63
2023/11/29 02:59:54;;;;;;;47.17;28.30;;;2.20;96.20;;;;;;5049830;28;20298;-62
2023/11/29 03:02:21;;;;;;;49.20;29.77;;;2.20;96.10;;;;;;5064476;28;20539;-62
2023/11/29 03:04:49;;;;;;;48.50;29.87;;;2.20;96.20;;;;;;5053159;28;20248;-63
2023/11/29 03:07:16;;;;;;;43.97;29.13;;;2.20;96.20;;;;;;5045142;28;20204;-62
2023/11/29 03:09:43;;;;;;;72.80;28.67;;;2.10;96.20;;;;;;5057291;28;20197;-62
2023/11/29 03:12:10;;;;;;;42.23;27.57;;;2.10;96.30;;;;;;5046917;28;20235;-62
2023/11/29 03:14:37;;;;;;;40.73;29.87;;;2.10;96.20;;;;;;5042985;28;20294;-62
2023/11/29 03:17:04;;;;;;;41.67;28.40;;;2.10;96.10;;;;;;5044221;28;20221;-62
2023/11/29 03:19:31;;;;;;;41.83;28.83;;;2.00;96.00;;;;;;5058502;28;20522;-62
2023/11/29 03:21:59;;;;;;;43.83;30.80;;;2.00;95.90;;;;;;5043297;28;20201;-63
2023/11/29 03:24:26;;;;;;;41.80;27.60;;;1.90;95.90;;;;;;5045576;28;20301;-62
2023/11/29 03:26:53;;;;;;;49.73;31.77;;;1.90;95.90;;;;;;5042172;28;20220;-62
2023/11/29 03:29:20;;;;;;;44.97;30.20;;;1.80;95.90;;;;;;5047906;28;20529;-62
2023/11/29 03:31:47;;;;;;;44.70;28.57;;;1.80;95.70;;;;;;5042394;28;20211;-63
2023/11/29 03:34:14;;;;;;;44.77;28.03;;;1.70;95.80;;;;;;5049045;28;20301;-63
2023/11/29 03:36:43;;;;;;;43.97;28.53;;;1.70;95.80;;;;;;5042247;28;20602;-63
2023/11/29 03:39:10;;;;;;;38.53;26.53;;;1.70;95.90;;;;;;5039400;28;20560;-63
2023/11/29 03:41:37;;;;;;;35.97;27.10;;;1.70;96.00;;;;;;5046494;28;20288;-62
2023/11/29 03:44:04;;;;;;;41.30;27.20;;;1.70;96.10;;;;;;5041843;28;20196;-63
2023/11/29 03:46:31;;;;;;;44.37;27.93;;;1.80;96.10;;;;;;5047513;28;20708;-63
2023/11/29 03:48:59;;;;;;;59.20;29.10;;;1.80;96.10;;;;;;5053001;28;20213;-62
2023/11/29 03:51:27;;;;;;;50.27;28.40;;;1.80;96.20;;;;;;5048607;28;20291;-62
2023/11/29 03:54:04;;;;;;;57.00;27.73;;;1.80;96.20;;;;;;5041349;28;20212;-63
2023/11/29 03:56:30;;;;;;;47.53;28.30;;;1.90;96.20;;;;;;5048129;28;20199;-63
2023/11/29 03:58:58;;;;;;;47.33;30.47;;;1.90;96.10;;;;;;5048807;28;20211;-63
2023/11/29 04:01:25;;;;;;;50.80;29.73;;;2.00;96.20;;;;;;5050464;28;20692;-63
2023/11/29 04:03:52;;;;;;;50.63;30.60;;;2.00;96.30;;;;;;5042165;28;20206;-63
2023/11/29 04:06:26;;;;;;;45.27;29.17;;;2.10;96.30;;;;;;5064363;28;20235;-63
2023/11/29 04:08:53;;;;;;;44.40;28.67;;;2.10;96.30;;;;;;5050738;28;20219;-63
2023/11/29 04:11:22;;;;;;;47.13;29.27;;;2.10;96.30;;;;;;5055734;28;20211;-62
2023/11/29 04:13:49;;;;;;;51.67;29.40;;;2.10;96.40;;;;;;5034681;28;20214;-62
2023/11/29 04:16:22;;;;;;;43.10;28.20;;;2.10;96.30;;;;;;5034121;28;20256;-62
2023/11/29 04:18:51;;;;;;;43.73;27.50;;;2.10;96.30;;;;;;5063251;28;20205;-62
2023/11/29 04:21:26;;;;;;;126.40;33.30;;;2.10;96.30;;;;;;5048909;28;20216;-62
2023/11/29 04:23:55;;;;;;;51.27;30.30;;;2.00;96.30;;;;;;5065258;28;20205;-62
2023/11/29 04:26:27;;;;;;;46.73;26.73;;;2.00;96.30;;;;;;5050757;28;20695;-62
2023/11/29 04:28:57;;;;;;;50.13;29.00;;;2.00;96.40;;;;;;5052661;28;20551;-62
2023/11/29 04:31:26;;;;;;;44.63;28.70;;;2.00;96.40;;;;;;5059761;28;20295;-62
2023/11/29 04:33:53;;;;;;;59.73;31.07;;;2.00;96.50;;;;;;5063722;28;20209;-62
2023/11/29 04:36:20;;;;;;;60.07;32.03;;;2.00;96.60;;;;;;5058440;28;20213;-63
2023/11/29 04:38:48;;;;;;;53.70;29.97;;;2.00;96.60;;;;;;5054328;28;20316;-63
2023/11/29 04:41:16;;;;;;;63.07;31.23;;;1.90;96.50;;;;;;5064520;28;20224;-62
2023/11/29 04:43:44;;;;;;;67.87;31.30;;;2.00;96.50;;;;;;5063126;28;20275;-63
2023/11/29 04:46:12;;;;;;;71.17;33.80;;;1.90;96.40;;;;;;5048386;28;20228;-62
2023/11/29 04:48:39;;;;;;;65.70;33.90;;;1.90;96.40;;;;;;5045260;28;20654;-62
2023/11/29 04:51:06;;;;;;;86.50;34.43;;;1.90;96.40;;;;;;5057117;28;20207;-62
2023/11/29 04:53:33;;;;;;;70.67;31.70;;;1.90;96.30;;;;;;5052111;28;20200;-62
2023/11/29 04:56:00;;;;;;;64.87;29.73;;;1.90;96.30;;;;;;5062072;28;20286;-62
2023/11/29 04:58:28;;;;;;;71.87;32.13;;;1.80;96.20;;;;;;5058748;28;20210;-62
2023/11/29 05:00:56;;;;;;;57.13;31.07;;;1.80;96.20;;;;;;5070048;28;20207;-62
2023/11/29 05:03:23;;;;;;;55.60;31.07;;;1.80;96.30;;;;;;5063434;28;20801;-62
2023/11/29 05:05:50;;;;;;;58.53;33.10;;;1.70;96.30;;;;;;5064507;28;20242;-62
2023/11/29 05:08:17;;;;;;;57.63;32.13;;;1.70;96.40;;;;;;5061441;28;20600;-62
2023/11/29 05:10:44;;;;;;;59.07;34.77;;;1.70;96.40;;;;;;5041064;28;20213;-62
2023/11/29 05:13:11;;;;;;;58.07;34.30;;;1.70;96.40;;;;;;5040793;28;20212;-62
2023/11/29 05:15:41;;;;;;;69.47;33.53;;;1.70;96.40;;;;;;5046621;28;20213;-63
2023/11/29 05:18:08;;;;;;;55.77;31.70;;;1.70;96.50;;;;;;5066696;28;20202;-62
2023/11/29 05:20:35;;;;;;;63.73;34.10;;;1.80;96.50;;;;;;5064812;28;20214;-62
2023/11/29 05:23:02;;;;;;;54.30;33.70;;;1.80;96.60;;;;;;5066001;28;20211;-62
2023/11/29 05:25:30;;;;;;;57.83;33.23;;;1.80;96.60;;;;;;5064075;28;20220;-62
2023/11/29 05:27:57;;;;;;;50.87;32.30;;;1.80;96.60;;;;;;5064461;28;20225;-62
2023/11/29 05:30:24;;;;;;;51.10;31.47;;;1.80;96.60;;;;;;5068937;28;20188;-62
2023/11/29 05:32:51;;;;;;;52.47;31.53;;;1.70;96.60;;;;;;5061338;28;20274;-62
2023/11/29 05:35:18;;;;;;;47.77;30.07;;;1.70;96.40;;;;;;5066910;28;20194;-62
2023/11/29 05:37:45;;;;;;;46.87;29.00;;;1.70;96.40;;;;;;5066894;28;20280;-63
2023/11/29 05:40:12;;;;;;;43.53;30.30;;;1.60;96.50;;;;;;5058934;28;20283;-62
2023/11/29 05:42:40;;;;;;;41.87;29.13;;;1.60;96.60;;;;;;5062194;28;20186;-62
2023/11/29 05:45:08;;;;;;;44.30;29.40;;;1.60;96.70;;;;;;5059324;28;20252;-62
2023/11/29 05:47:35;;;;;;;52.70;32.20;;;1.60;96.70;;;;;;5059272;28;20231;-62
2023/11/29 05:50:05;;;;;;;51.67;30.23;;;1.60;96.70;;;;;;5060743;28;20219;-62
2023/11/29 05:52:32;;;;;;;49.97;29.73;;;1.60;96.70;;;;;;5065751;28;20628;-62
2023/11/29 05:55:02;;;;;;;44.77;29.57;;;1.60;96.70;;;;;;5061583;28;20515;-62
2023/11/29 05:57:29;;;;;;;45.13;28.80;;;1.60;96.50;;;;;;5064830;28;20200;-62
2023/11/29 05:59:56;;;;;;;46.33;30.07;;;1.60;96.40;;;;;;5068348;28;20207;-63
2023/11/29 06:02:23;;;;;;;41.47;27.90;;;1.50;96.30;;;;;;5068467;28;20267;-62
2023/11/29 06:04:50;;;;;;;44.37;29.00;;;1.50;96.40;;;;;;5064921;28;20236;-62
2023/11/29 06:07:17;;;;;;;40.43;27.57;;;1.50;96.40;;;;;;5061438;28;20212;-62
2023/11/29 06:09:45;;;;;;;43.23;27.40;;;1.50;96.50;;;;;;5059164;28;20208;-62
2023/11/29 06:12:12;;;;;;;39.80;26.57;;;1.40;96.50;;;;;;5062820;28;20195;-63
2023/11/29 06:14:39;;;;;;;43.53;28.00;;;1.50;96.50;;;;;;5064762;28;20265;-63
2023/11/29 06:17:06;;;;;;;46.63;28.43;;;1.40;96.50;;;;;;5065631;28;20547;-62
2023/11/29 06:19:37;;;;;;;44.20;28.83;;;1.40;96.50;;;;;;5063034;28;20209;-62
2023/11/29 06:22:04;;;;;;;39.63;26.17;;;1.30;96.50;;;;;;5065262;28;20194;-63
2023/11/29 06:24:31;;;;;;;46.33;28.87;;;1.30;96.50;;;;;;5061561;28;20203;-62
2023/11/29 06:27:00;;;;;;;40.50;26.90;;;1.30;96.40;;;;;;5065835;28;20662;-62
2023/11/29 06:29:27;;;;;;;41.00;27.63;;;1.30;96.40;;;;;;5061126;28;20214;-62
2023/11/29 06:31:54;;;;;;;45.87;27.57;;;1.30;96.70;;;;;;5064376;28;20192;-62
2023/11/29 06:34:21;;;;;;;39.47;26.87;;;1.30;96.50;;;;;;5064853;28;20248;-62
2023/11/29 06:36:49;;;;;;;42.17;27.53;;;1.30;96.50;;;;;;5064254;28;20265;-62
2023/11/29 06:39:19;;;;;;;45.00;27.67;;;1.30;96.50;;;;;;5042995;28;20210;-62
2023/11/29 06:41:49;;;;;;;42.43;28.53;;;1.30;96.60;;;;;;5055029;28;20191;-62
2023/11/29 06:44:17;;;;;;;43.20;26.93;;;1.30;96.60;;;;;;5058022;28;20200;-62
2023/11/29 06:46:44;;;;;;;51.57;31.90;;;1.30;96.60;;;;;;5060986;28;20216;-62
2023/11/29 06:49:11;;;;;;;46.67;30.27;;;1.40;96.70;;;;;;5062157;28;20204;-62
2023/11/29 06:51:41;;;;;;;49.23;30.33;;;1.40;96.70;;;;;;5063017;28;20206;-62
2023/11/29 06:54:08;;;;;;;49.13;32.60;;;1.40;96.70;;;;;;5052351;28;20201;-62
2023/11/29 06:56:35;;;;;;;51.00;31.97;;;1.40;96.80;;;;;;5062766;28;20206;-62
2023/11/29 06:59:04;;;;;;;48.90;32.63;;;1.50;96.80;;;;;;5062600;28;20629;-62
2023/11/29 07:01:32;;;;;;;48.90;31.87;;;1.50;96.80;;;;;;5068094;28;20304;-62
2023/11/29 07:03:59;;;;;;;46.73;31.00;;;1.50;96.80;;;;;;5059100;28;20206;-62
2023/11/29 07:06:26;;;;;;;41.90;28.33;;;1.50;96.70;;;;;;5060050;28;20237;-62
2023/11/29 07:08:53;;;;;;;39.57;28.20;;;1.60;96.70;;;;;;5061181;28;20302;-63
2023/11/29 07:11:20;;;;;;;43.03;27.60;;;1.60;96.70;;;;;;5066167;28;20593;-62
2023/11/29 07:13:47;;;;;;;45.07;28.13;;;1.60;96.70;;;;;;5066971;28;20599;-62
2023/11/29 07:16:14;;;;;;;50.33;28.97;;;1.60;97.10;;;;;;5070346;28;20209;-63
2023/11/29 07:18:42;;;;;;;42.43;26.93;;;1.70;96.90;;;;;;5068325;28;20203;-62
2023/11/29 07:21:09;;;;;;;41.23;26.40;;;1.70;96.90;;;;;;5067946;28;20199;-62
2023/11/29 07:23:36;;;;;;;43.20;29.63;;;1.70;96.90;;;;;;5068463;28;20199;-62
2023/11/29 07:26:03;;;;;;;44.37;26.57;;;1.80;96.90;;;;;;5066837;28;20215;-62
2023/11/29 07:28:30;;;;;;;43.77;28.47;;;1.90;96.90;;;;;;5068827;28;20208;-62
2023/11/29 07:30:57;;;;;;;42.53;28.20;;;2.00;96.90;;;;;;5069080;28;20212;-63
2023/11/29 07:33:24;;;;;;;37.60;26.17;;;2.00;96.90;;;;;;5069146;28;20599;-63
2023/11/29 07:35:51;;;;;;;38.70;25.70;;;2.10;96.90;;;;;;5066335;28;20213;-62
2023/11/29 07:38:18;;;;;;;40.93;27.37;;;2.20;96.90;;;;;;5067495;28;20200;-62
2023/11/29 07:40:45;;;;;;;41.00;26.07;;;2.20;96.80;;;;;;5067594;28;20283;-62
2023/11/29 07:43:12;;;;;;;36.23;25.67;;;2.30;96.90;;;;;;5068509;28;20199;-62
2023/11/29 07:45:41;;;;;;;39.33;26.93;;;2.30;96.90;;;;;;5052046;28;20205;-62
2023/11/29 07:48:08;;;;;;;42.07;29.30;;;2.40;96.80;;;;;;5052423;28;20264;-62
2023/11/29 07:50:36;;;;;;;39.97;28.27;;;2.50;96.80;;;;;;5064028;28;20192;-63
2023/11/29 07:53:03;;;;;;;39.07;27.37;;;2.50;96.80;;;;;;5066272;28;20569;-62
2023/11/29 07:55:30;;;;;;;41.87;27.27;;;2.60;96.70;;;;;;5069311;28;20616;-62
2023/11/29 07:57:56;;;;;;;39.47;26.63;;;2.70;96.60;;;;;;5069646;28;20545;-62
2023/11/29 08:00:23;;;;;;;34.37;25.87;;;2.80;96.60;;;;;;5065884;28;20641;-62
2023/11/29 08:02:51;;;;;;;38.23;26.53;;;2.80;96.60;;;;;;5064477;28;20227;-62
2023/11/29 08:05:24;;;;;;;33.67;25.83;;;2.90;96.60;;;;;;5067693;28;20254;-62
2023/11/29 08:07:51;;;;;;;40.40;27.03;;;3.00;96.50;;;;;;5071635;28;20216;-62
2023/11/29 08:10:18;;;;;;;39.60;28.53;;;3.00;96.30;;;;;;5064650;28;20201;-62
2023/11/29 08:12:46;;;;;;;37.17;26.37;;;3.10;96.20;;;;;;5063896;28;20229;-62
2023/11/29 08:15:13;;;;;;;42.80;30.57;;;3.10;96.20;;;;;;5061977;28;20575;-62
2023/11/29 08:17:40;;;;;;;42.57;29.10;;;3.20;96.30;;;;;;5064661;28;20213;-62
2023/11/29 08:20:09;;;;;;;38.07;28.03;;;3.30;96.40;;;;;;5067625;28;20296;-62
2023/11/29 08:22:36;;;;;;;42.10;29.77;;;3.40;96.40;;;;;;5065511;28;20194;-62
2023/11/29 08:25:03;;;;;;;44.07;27.50;;;3.40;96.40;;;;;;5069087;28;20286;-61
2023/11/29 08:27:30;;;;;;;35.03;25.90;;;3.50;96.40;;;;;;5065286;28;20543;-61
2023/11/29 08:29:57;;;;;;;40.87;26.80;;;3.60;96.40;;;;;;5052633;28;20218;-62
2023/11/29 08:32:24;;;;;;;37.07;25.63;;;3.80;96.40;;;;;;5063299;28;20504;-61
2023/11/29 08:34:52;;;;;;;39.17;25.50;;;3.80;96.40;;;;;;5073483;28;20193;-62
2023/11/29 08:37:19;;;;;;;38.30;25.27;;;3.90;96.30;;;;;;5070277;28;20725;-62
2023/11/29 08:39:45;;;;;;;34.07;24.30;;;4.00;96.30;;;;;;5065363;28;20205;-61
2023/11/29 08:42:13;;;;;;;37.23;25.60;;;4.10;96.30;;;;;;5069877;28;20209;-61
2023/11/29 08:44:41;;;;;;;34.87;26.10;;;4.20;96.20;;;;;;5065692;28;20202;-62
2023/11/29 08:47:08;;;;;;;38.47;27.37;;;4.30;96.20;;;;;;5067691;28;20219;-62
2023/11/29 08:49:35;;;;;;;34.43;24.83;;;4.40;96.10;;;;;;5062814;28;20224;-62
2023/11/29 08:52:03;;;;;;;35.83;24.00;;;4.50;96.00;;;;;;5065052;28;20208;-62
2023/11/29 08:54:31;;;;;;;34.03;24.80;;;4.50;95.90;;;;;;5068430;28;20508;-62
2023/11/29 08:56:58;;;;;;;34.80;25.03;;;4.60;95.90;;;;;;5066548;28;20643;-62
2023/11/29 08:59:25;;;;;;;34.30;24.63;;;4.70;95.80;;;;;;5065117;28;20233;-62
2023/11/29 09:01:52;;;;;;;33.60;24.17;;;4.80;95.70;;;;;;5065687;28;20267;-62
2023/11/29 09:04:19;;;;;;;38.07;25.90;;;4.90;95.70;;;;;;5047207;28;20634;-62
2023/11/29 09:06:46;;;;;;;35.43;25.90;;;4.90;95.50;;;;;;5069251;28;20516;-62
2023/11/29 09:09:13;;;;;;;36.13;26.33;;;5.00;95.40;;;;;;5066303;28;20220;-61
2023/11/29 09:11:40;;;;;;;34.60;26.07;;;5.10;95.60;;;;;;5064496;28;20243;-61
2023/11/29 09:14:08;;;;;;;36.13;27.07;;;5.10;95.30;;;;;;5066090;28;20212;-61
2023/11/29 09:16:35;;;;;;;38.40;25.93;;;5.20;95.30;;;;;;5062057;28;20217;-62
2023/11/29 09:19:02;;;;;;;39.73;27.67;;;5.20;95.00;;;;;;5064064;28;20214;-62
2023/11/29 09:21:29;;;;;;;36.93;26.77;;;5.20;94.90;;;;;;5068061;28;20213;-62
2023/11/29 09:23:56;;;;;;;36.03;25.93;;;5.30;94.90;;;;;;5064393;28;20210;-61
2023/11/29 09:26:23;;;;;;;36.33;26.43;;;5.30;95.00;;;;;;5067337;28;20293;-62
2023/11/29 09:28:50;;;;;;;38.33;26.70;;;5.40;95.00;;;;;;5063258;28;20263;-62
2023/11/29 09:31:17;;;;;;;35.17;25.07;;;5.50;95.10;;;;;;5065677;28;20194;-62
2023/11/29 09:33:44;;;;;;;35.00;25.03;;;5.50;95.00;;;;;;5066638;28;20194;-62
2023/11/29 09:36:12;;;;;;;36.90;26.53;;;5.50;95.00;;;;;;5068529;28;20205;-62
2023/11/29 09:38:39;;;;;;;38.03;25.37;;;5.60;95.00;;;;;;5058455;28;20284;-62
2023/11/29 09:41:07;;;;;;;32.30;25.43;;;5.60;95.20;;;;;;5046241;28;20201;-62
2023/11/29 09:43:39;;;;;;;32.97;25.13;;;5.80;95.30;;;;;;5064370;28;20240;-62
2023/11/29 09:46:06;;;;;;;34.87;26.57;;;5.80;95.20;;;;;;5065800;28;20201;-62
2023/11/29 09:48:33;;;;;;;36.83;27.37;;;5.90;95.20;;;;;;5068416;28;20213;-62
2023/11/29 09:51:01;;;;;;;35.63;25.13;;;6.00;95.30;;;;;;5061376;28;20193;-62
2023/11/29 09:53:30;;;;;;;31.67;25.03;;;6.10;95.30;;;;;;5064866;28;20621;-63
2023/11/29 09:55:58;;;;;;;33.50;25.17;;;6.20;95.20;;;;;;5061639;28;20632;-63
2023/11/29 09:58:27;;;;;;;32.47;25.07;;;6.30;95.00;;;;;;5067744;28;20190;-63
2023/11/29 10:00:54;;;;;;;33.63;26.20;;;6.40;95.00;;;;;;5058695;28;20222;-63
2023/11/29 10:03:22;;;;;;;37.87;25.43;;;6.40;94.90;;;;;;5063562;28;20627;-63
2023/11/29 10:05:50;;;;;;;31.63;24.60;;;6.50;94.80;;;;;;5065623;28;20621;-61
2023/11/29 10:08:21;;;;;;;33.17;24.87;;;6.60;94.80;;;;;;5066228;28;20236;-62
2023/11/29 10:10:50;;;;;;;32.80;24.53;;;6.70;94.80;;;;;;5064250;28;20198;-62
2023/11/29 10:13:17;;;;;;;38.93;26.33;;;6.80;94.70;;;;;;5060488;28;20193;-63
2023/11/29 10:15:48;;;;;;;35.77;27.13;;;6.80;94.60;;;;;;5065615;28;20194;-63
2023/11/29 10:18:18;;;;;;;37.97;26.53;;;6.90;94.50;;;;;;5065814;28;20210;-63
2023/11/29 10:20:46;;;;;;;36.47;26.43;;;6.90;94.60;;;;;;5063191;28;20621;-62
2023/11/29 10:23:31;;;;;;;33.80;26.30;;;6.90;94.60;;;;;;5062664;28;20237;-64
2023/11/29 10:25:59;;;;;;;32.40;25.23;;;6.90;94.50;;;;;;5064153;28;20641;-63
2023/11/29 10:28:26;;;;;;;33.90;26.67;;;6.90;94.50;;;;;;5062781;28;20218;-65
2023/11/29 10:30:53;;;;;;;37.30;28.60;;;6.90;94.60;;;;;;5050398;28;20643;-62
2023/11/29 10:33:20;;;;;;;38.13;29.10;;;7.00;94.80;;;;;;5066456;28;20205;-63
2023/11/29 10:35:48;;;;;;;45.63;27.73;;;7.10;95.00;;;;;;5069157;28;20194;-62
2023/11/29 10:38:18;;;;;;;39.77;28.30;;;7.20;95.20;;;;;;5063770;28;20195;-63
2023/11/29 10:40:45;;;;;;;38.33;27.73;;;7.40;95.30;;;;;;5067657;28;20217;-63
2023/11/29 10:43:23;;;;;;;38.67;28.13;;;7.50;95.20;;;;;;5061663;28;20229;-62
2023/11/29 10:45:53;;;;;;;38.63;29.57;;;7.70;95.20;;;;;;5062770;28;20197;-64
2023/11/29 10:48:24;;;;;;;38.17;28.37;;;7.80;95.20;;;;;;5058674;28;20212;-63
2023/11/29 10:50:53;;;;;;;37.60;29.93;;;7.90;95.20;;;;;;5059124;28;20270;-63
2023/11/29 10:53:20;;;;;;;35.10;29.10;;;8.10;95.00;;;;;;5045783;28;20597;-62
2023/11/29 10:55:48;;;;;;;39.60;30.57;;;8.10;94.80;;;;;;5064394;28;20198;-62
2023/11/29 10:58:30;;;;;;;42.40;32.13;;;8.10;94.80;;;;;;5065542;28;20263;-62
2023/11/29 11:00:57;;;;;;;42.53;30.73;;;8.20;95.00;;;;;;5065851;28;20211;-64
2023/11/29 11:03:46;;;;;;;40.40;30.60;;;8.40;95.20;;;;;;5045172;28;20211;-63
2023/11/29 11:06:22;;;;;;;40.97;31.87;;;8.60;95.20;;;;;;5066589;28;20245;-63
2023/11/29 11:08:50;;;;;;;43.20;32.50;;;8.70;95.00;;;;;;5045300;28;20211;-64
2023/11/29 11:11:38;;;;;;;44.23;32.23;;;8.80;94.70;;;;;;5067132;28;20190;-63
2023/11/29 11:14:20;;;;;;;46.10;33.73;;;8.90;94.50;;;;;;5059722;28;20624;-62
2023/11/29 11:17:18;;;;;;;45.53;33.33;;;9.00;94.30;;;;;;5062602;28;20229;-62
2023/11/29 11:19:47;;;;;;;47.60;33.07;;;9.10;94.20;;;;;;5066004;28;20551;-66
2023/11/29 11:22:24;;;;;;;49.73;35.57;;;9.20;94.10;;;;;;5063836;28;20195;-63
2023/11/29 11:24:59;;;;;;;49.83;36.63;;;9.20;94.00;;;;;;5063322;28;20196;-62
2023/11/29 11:28:03;;;;;;;45.07;36.70;;;9.30;93.80;;;;;;5063533;28;20217;-61
2023/11/29 11:30:30;;;;;;;42.63;34.20;;;9.40;93.90;;;;;;4966552;28;20629;-65
2023/11/29 11:32:58;;;;;;;45.60;35.10;;;9.50;93.90;;;;;;5044579;28;20205;-64
2023/11/29 11:35:33;;;;;;;41.27;33.83;;;9.60;93.90;;;;;;5066748;28;20188;-64
2023/11/29 11:38:09;;;;;;;48.90;35.33;;;9.70;93.90;;;;;;5063281;28;20195;-63
2023/11/29 11:40:38;;;;;;;43.17;33.80;;;9.80;93.90;;;;;;5066456;28;20227;-62
2023/11/29 11:43:06;;;;;;;47.17;33.77;;;10.00;93.80;;;;;;5046588;28;20236;-62
2023/11/29 11:45:36;;;;;;;44.73;34.37;;;10.10;93.70;;;;;;5061136;28;20591;-63
2023/11/29 11:48:05;;;;;;;44.40;32.77;;;10.20;93.60;;;;;;5063418;28;20209;-63
2023/11/29 11:50:33;;;;;;;41.37;34.70;;;10.30;93.40;;;;;;5056049;28;20621;-63
2023/11/29 11:53:03;;;;;;;37.77;31.00;;;10.40;93.20;;;;;;5061476;28;20273;-63
2023/11/29 11:55:31;;;;;;;47.90;33.40;;;10.50;93.00;;;;;;5063341;28;20202;-62
2023/11/29 11:58:03;;;;;;;39.67;31.50;;;10.60;92.70;;;;;;5048560;28;20269;-63
2023/11/29 12:00:30;;;;;;;42.40;32.30;;;10.60;92.40;;;;;;5057915;28;20317;-63
2023/11/29 12:02:59;;;;;;;35.53;28.57;;;10.60;92.20;;;;;;5068664;28;21078;-62
2023/11/29 12:05:27;;;;;;;42.23;31.67;;;10.70;92.10;;;;;;5061618;28;20294;-62
2023/11/29 12:07:54;;;;;;;36.80;29.37;;;10.70;91.80;;;;;;5064148;28;20217;-62
2023/11/29 12:10:22;;;;;;;40.23;27.20;;;10.70;91.70;;;;;;5070714;28;20530;-62
2023/11/29 12:12:50;;;;;;;40.50;30.10;;;10.80;91.40;;;;;;5065134;28;20263;-62
2023/11/29 12:15:17;;;;;;;40.20;31.40;;;10.80;91.20;;;;;;5068007;28;20199;-62
2023/11/29 12:17:46;;;;;;;36.73;29.13;;;10.80;91.20;;;;;;5058898;28;20288;-63
2023/11/29 12:20:14;;;;;;;36.17;25.83;;;10.90;91.10;;;;;;5058136;28;20201;-62
2023/11/29 12:22:44;;;;;;;36.63;26.53;;;10.90;90.70;;;;;;5054442;28;20513;-62
2023/11/29 12:25:13;;;;;;;36.53;26.43;;;10.90;89.90;;;;;;5068150;28;20271;-62
2023/11/29 12:27:43;;;;;;;35.07;26.17;;;11.00;89.40;;;;;;5064941;28;20214;-63
2023/11/29 12:30:11;;;;;;;35.57;26.83;;;11.00;89.30;;;;;;5064935;28;20301;-62
2023/11/29 12:32:39;;;;;;;40.53;28.47;;;11.00;89.10;;;;;;5063394;28;20196;-62
2023/11/29 12:35:15;;;;;;;39.73;28.30;;;11.00;88.80;;;;;;5065769;28;20188;-62
2023/11/29 12:37:47;;;;;;;37.43;27.27;;;11.00;88.10;;;;;;5067811;28;20214;-62
2023/11/29 12:40:16;;;;;;;37.57;28.37;;;11.00;87.90;;;;;;5065490;28;20193;-62